Decoded Metar for PAPM (PORT MOLLER in AK, USA) (IATA:PML) | Meteo·Mobile Aviation Weather
aviador You're here:

PAPM Decoded Metar

PORT MOLLER in AK, USA
Report Time2019-02-17 14:56:00
UTC Time2019-02-17 15:41:40
Flight Rules ifr IFR
Wind150° at 18 kt
W.Decomp.*RWY 14: 17.9 kt HW 1.9 kt LCW
W.Rank150° ranks 20
Current wind is above 150° avg. (11.9)
Visibility8047 m
Phenomena:Mist
Clouds:Broken 007 Hf
Overcast 012 Hf
Expected CloudBase > 400 ft AGL from Temp-Dew spread
Ceiling700 ft
Temp02°C (ISA -13)
Dew Point01°C (93% RH)
AAT-6.3°C
QNH999 hPa
Density Alt-991 ft
Elevation16 ft
Report Wrong Elevation
Raw Report
PAPM 171456Z AUTO 15018KT 5SM BR BKN007 OVC012 02/01 A2950 RMK AO2
UPB34E51 CIG 005V008 SLP992 P0000 60001 T00170006 55002
FZRANO=

Extra information for PAPM:More info

Metar Taf Metar & Taf Last 4 Metars F.Rules Stats Wind Profile Meteogram Temp Stats Airport Information Weather charts Add Link Nearby VenuesMetar ALERT Operation Metar Decoded Social comments

AIRNAV info for PAPM